sensor_id;sensor_type;location;lat;lon;timestamp;pressure;altitude;pressure_sealevel;temperature;humidity
18436;BME280;9346;52.006;4.720;2023-03-01T00:00:52;103126.50;;;3.19;100.00
18436;BME280;9346;52.006;4.720;2023-03-01T00:03:19;103120.53;;;3.16;100.00
18436;BME280;9346;52.006;4.720;2023-03-01T00:05:46;103121.41;;;3.16;100.00
18436;BME280;9346;52.006;4.720;2023-03-01T00:08:13;103109.00;;;3.14;100.00
18436;BME280;9346;52.006;4.720;2023-03-01T00:10:42;103109.81;;;3.14;100.00
18436;BME280;9346;52.006;4.720;2023-03-01T00:13:09;103111.53;;;3.15;100.00
18436;BME280;9346;52.006;4.720;2023-03-01T00:15:38;103099.78;;;3.15;100.00
18436;BME280;9346;52.006;4.720;2023-03-01T00:18:05;103106.28;;;3.14;100.00
18436;BME280;9346;52.006;4.720;2023-03-01T00:20:33;103097.22;;;3.13;100.00
18436;BME280;9346;52.006;4.720;2023-03-01T00:23:00;103101.00;;;3.12;100.00
18436;BME280;9346;52.006;4.720;2023-03-01T00:25:26;103102.16;;;3.10;100.00
18436;BME280;9346;52.006;4.720;2023-03-01T00:27:56;103110.31;;;3.10;100.00
18436;BME280;9346;52.006;4.720;2023-03-01T00:30:22;103106.78;;;3.09;100.00
18436;BME280;9346;52.006;4.720;2023-03-01T00:32:49;103099.59;;;3.08;100.00
18436;BME280;9346;52.006;4.720;2023-03-01T00:35:17;103096.22;;;3.06;100.00
18436;BME280;9346;52.006;4.720;2023-03-01T00:37:44;103100.81;;;3.06;100.00
18436;BME280;9346;52.006;4.720;2023-03-01T00:40:12;103101.84;;;3.05;100.00
18436;BME280;9346;52.006;4.720;2023-03-01T00:42:41;103095.53;;;3.04;100.00
18436;BME280;9346;52.006;4.720;2023-03-01T00:45:10;103092.97;;;3.03;100.00
18436;BME280;9346;52.006;4.720;2023-03-01T00:47:38;103097.41;;;3.04;100.00
18436;BME280;9346;52.006;4.720;2023-03-01T00:50:06;103093.16;;;3.01;100.00
18436;BME280;9346;52.006;4.720;2023-03-01T00:52:33;103101.50;;;3.00;100.00
18436;BME280;9346;52.006;4.720;2023-03-01T00:55:00;103094.50;;;2.97;100.00
18436;BME280;9346;52.006;4.720;2023-03-01T00:57:27;103085.66;;;2.95;100.00
18436;BME280;9346;52.006;4.720;2023-03-01T00:59:54;103090.44;;;2.93;100.00
18436;BME280;9346;52.006;4.720;2023-03-01T01:02:23;103083.31;;;2.92;100.00
18436;BME280;9346;52.006;4.720;2023-03-01T01:04:51;103083.47;;;2.91;100.00
18436;BME280;9346;52.006;4.720;2023-03-01T01:07:19;103090.78;;;2.90;100.00
18436;BME280;9346;52.006;4.720;2023-03-01T01:09:46;103088.22;;;2.89;100.00
18436;BME280;9346;52.006;4.720;2023-03-01T01:12:13;103089.44;;;2.86;100.00
18436;BME280;9346;52.006;4.720;2023-03-01T01:14:40;103089.75;;;2.83;100.00
18436;BME280;9346;52.006;4.720;2023-03-01T01:17:07;103092.31;;;2.85;100.00
18436;BME280;9346;52.006;4.720;2023-03-01T01:19:36;103088.91;;;2.83;100.00
18436;BME280;9346;52.006;4.720;2023-03-01T01:22:03;103090.75;;;2.82;100.00
18436;BME280;9346;52.006;4.720;2023-03-01T01:24:29;103086.50;;;2.80;100.00
18436;BME280;9346;52.006;4.720;2023-03-01T01:26:56;103083.78;;;2.80;100.00
18436;BME280;9346;52.006;4.720;2023-03-01T01:29:23;103072.91;;;2.80;100.00
18436;BME280;9346;52.006;4.720;2023-03-01T01:31:50;103063.88;;;2.79;100.00
18436;BME280;9346;52.006;4.720;2023-03-01T01:34:20;103062.34;;;2.77;100.00
18436;BME280;9346;52.006;4.720;2023-03-01T01:36:50;103062.34;;;2.77;100.00
18436;BME280;9346;52.006;4.720;2023-03-01T01:39:18;103053.34;;;2.76;100.00
18436;BME280;9346;52.006;4.720;2023-03-01T01:41:46;103044.34;;;2.76;100.00
18436;BME280;9346;52.006;4.720;2023-03-01T01:44:19;103044.34;;;2.76;100.00
18436;BME280;9346;52.006;4.720;2023-03-01T01:46:50;103039.06;;;2.74;100.00
18436;BME280;9346;52.006;4.720;2023-03-01T01:49:25;103038.03;;;2.75;100.00
18436;BME280;9346;52.006;4.720;2023-03-01T01:52:02;103038.19;;;2.74;100.00
18436;BME280;9346;52.006;4.720;2023-03-01T01:54:37;103035.81;;;2.71;100.00
18436;BME280;9346;52.006;4.720;2023-03-01T01:57:07;103034.97;;;2.70;100.00
18436;BME280;9346;52.006;4.720;2023-03-01T01:59:36;103027.81;;;2.69;100.00
18436;BME280;9346;52.006;4.720;2023-03-01T02:02:05;103026.13;;;2.68;100.00
18436;BME280;9346;52.006;4.720;2023-03-01T02:04:32;103032.59;;;2.67;100.00
18436;BME280;9346;52.006;4.720;2023-03-01T02:07:05;103037.00;;;2.68;100.00
18436;BME280;9346;52.006;4.720;2023-03-01T02:09:35;103038.22;;;2.66;100.00
18436;BME280;9346;52.006;4.720;2023-03-01T02:12:03;103034.63;;;2.65;100.00
18436;BME280;9346;52.006;4.720;2023-03-01T02:14:31;103036.50;;;2.65;100.00
18436;BME280;9346;52.006;4.720;2023-03-01T02:16:57;103032.94;;;2.64;100.00
18436;BME280;9346;52.006;4.720;2023-03-01T02:19:32;103029.19;;;2.65;100.00
18436;BME280;9346;52.006;4.720;2023-03-01T02:22:13;103020.16;;;2.65;100.00
18436;BME280;9346;52.006;4.720;2023-03-01T02:24:52;103014.06;;;2.63;100.00
18436;BME280;9346;52.006;4.720;2023-03-01T02:27:31;103013.03;;;2.64;100.00
18436;BME280;9346;52.006;4.720;2023-03-01T02:30:04;103021.38;;;2.62;100.00
18436;BME280;9346;52.006;4.720;2023-03-01T02:32:32;103018.81;;;2.61;100.00
18436;BME280;9346;52.006;4.720;2023-03-01T02:34:57;103025.28;;;2.60;100.00
18436;BME280;9346;52.006;4.720;2023-03-01T02:37:26;103018.16;;;2.59;100.00
18436;BME280;9346;52.006;4.720;2023-03-01T02:39:57;103023.75;;;2.57;100.00
18436;BME280;9346;52.006;4.720;2023-03-01T02:42:28;103017.47;;;2.57;100.00
18436;BME280;9346;52.006;4.720;2023-03-01T02:44:57;103013.22;;;2.54;100.00
18436;BME280;9346;52.006;4.720;2023-03-01T02:47:25;103006.91;;;2.54;100.00
18436;BME280;9346;52.006;4.720;2023-03-01T02:49:52;103009.81;;;2.52;100.00
18436;BME280;9346;52.006;4.720;2023-03-01T02:52:34;103001.63;;;2.52;100.00
18436;BME280;9346;52.006;4.720;2023-03-01T02:55:06;102994.84;;;2.48;100.00
18436;BME280;9346;52.006;4.720;2023-03-01T02:57:38;102997.91;;;2.45;100.00
18436;BME280;9346;52.006;4.720;2023-03-01T03:00:08;102992.78;;;2.42;100.00
18436;BME280;9346;52.006;4.720;2023-03-01T03:02:37;102997.38;;;2.42;100.00
18436;BME280;9346;52.006;4.720;2023-03-01T03:05:07;102991.09;;;2.41;100.00
18436;BME280;9346;52.006;4.720;2023-03-01T03:07:36;102987.69;;;2.39;100.00
18436;BME280;9346;52.006;4.720;2023-03-01T03:10:05;102983.94;;;2.40;100.00
18436;BME280;9346;52.006;4.720;2023-03-01T03:12:32;102977.69;;;2.40;100.00
18436;BME280;9346;52.006;4.720;2023-03-01T03:14:59;102978.50;;;2.40;100.00
18436;BME280;9346;52.006;4.720;2023-03-01T03:17:26;102984.81;;;2.41;100.00
18436;BME280;9346;52.006;4.720;2023-03-01T03:19:55;102989.38;;;2.40;100.00
18436;BME280;9346;52.006;4.720;2023-03-01T03:22:22;102987.53;;;2.41;100.00
18436;BME280;9346;52.006;4.720;2023-03-01T03:24:49;102980.41;;;2.40;100.00
18436;BME280;9346;52.006;4.720;2023-03-01T03:27:16;102986.00;;;2.38;100.00
18436;BME280;9346;52.006;4.720;2023-03-01T03:29:43;102982.25;;;2.39;100.00
18436;BME280;9346;52.006;4.720;2023-03-01T03:32:10;102984.28;;;2.37;100.00
18436;BME280;9346;52.006;4.720;2023-03-01T03:34:37;102982.59;;;2.36;100.00
18436;BME280;9346;52.006;4.720;2023-03-01T03:37:06;102978.34;;;2.33;100.00
18436;BME280;9346;52.006;4.720;2023-03-01T03:39:53;102980.53;;;2.30;100.00
18436;BME280;9346;52.006;4.720;2023-03-01T03:42:20;102973.41;;;2.29;100.00
18436;BME280;9346;52.006;4.720;2023-03-01T03:44:48;102969.84;;;2.28;100.00
18436;BME280;9346;52.006;4.720;2023-03-01T03:47:15;102970.69;;;2.29;100.00
18436;BME280;9346;52.006;4.720;2023-03-01T03:49:42;102969.16;;;2.26;100.00
18436;BME280;9346;52.006;4.720;2023-03-01T03:52:10;102964.56;;;2.27;100.00
18436;BME280;9346;52.006;4.720;2023-03-01T03:54:39;102962.88;;;2.26;100.00
18436;BME280;9346;52.006;4.720;2023-03-01T03:57:06;102966.44;;;2.26;100.00
18436;BME280;9346;52.006;4.720;2023-03-01T03:59:33;102954.88;;;2.24;100.00
18436;BME280;9346;52.006;4.720;2023-03-01T04:02:00;102958.47;;;2.25;100.00
18436;BME280;9346;52.006;4.720;2023-03-01T04:04:27;102956.75;;;2.24;100.00
18436;BME280;9346;52.006;4.720;2023-03-01T04:06:54;102962.19;;;2.24;100.00
18436;BME280;9346;52.006;4.720;2023-03-01T04:09:22;102965.75;;;2.24;100.00
18436;BME280;9346;52.006;4.720;2023-03-01T04:11:49;102971.38;;;2.23;100.00
18436;BME280;9346;52.006;4.720;2023-03-01T04:14:16;102965.44;;;2.19;100.00
18436;BME280;9346;52.006;4.720;2023-03-01T04:16:43;102958.44;;;2.17;100.00
18436;BME280;9346;52.006;4.720;2023-03-01T04:19:10;102959.47;;;2.16;100.00
18436;BME280;9346;52.006;4.720;2023-03-01T04:21:37;102967.44;;;2.17;100.00
18436;BME280;9346;52.006;4.720;2023-03-01T04:24:04;102966.59;;;2.17;100.00
18436;BME280;9346;52.006;4.720;2023-03-01T04:26:36;102960.31;;;2.16;100.00
18436;BME280;9346;52.006;4.720;2023-03-01T04:29:03;102965.75;;;2.16;100.00
18436;BME280;9346;52.006;4.720;2023-03-01T04:31:30;102963.22;;;2.15;100.00
18436;BME280;9346;52.006;4.720;2023-03-01T04:33:57;102952.16;;;2.16;100.00
18436;BME280;9346;52.006;4.720;2023-03-01T04:36:27;102955.06;;;2.15;100.00
18436;BME280;9346;52.006;4.720;2023-03-01T04:38:55;102961.50;;;2.14;100.00
18436;BME280;9346;52.006;4.720;2023-03-01T04:41:24;102951.81;;;2.11;100.00
18436;BME280;9346;52.006;4.720;2023-03-01T04:43:53;102946.38;;;2.11;100.00
18436;BME280;9346;52.006;4.720;2023-03-01T04:46:20;102948.22;;;2.11;100.00
18436;BME280;9346;52.006;4.720;2023-03-01T04:48:48;102941.09;;;2.10;100.00
18436;BME280;9346;52.006;4.720;2023-03-01T04:51:15;102936.69;;;2.09;100.00
18436;BME280;9346;52.006;4.720;2023-03-01T04:53:43;102940.41;;;2.08;100.00
18436;BME280;9346;52.006;4.720;2023-03-01T04:56:11;102939.56;;;2.07;100.00
18436;BME280;9346;52.006;4.720;2023-03-01T04:58:39;102934.31;;;2.06;100.00
18436;BME280;9346;52.006;4.720;2023-03-01T05:01:13;102928.19;;;2.04;100.00
18436;BME280;9346;52.006;4.720;2023-03-01T05:03:42;102923.06;;;2.01;100.00
18436;BME280;9346;52.006;4.720;2023-03-01T05:06:10;102921.72;;;1.97;100.00
18436;BME280;9346;52.006;4.720;2023-03-01T05:08:38;102925.63;;;1.94;100.00
18436;BME280;9346;52.006;4.720;2023-03-01T05:11:05;102919.50;;;1.92;100.00
18436;BME280;9346;52.006;4.720;2023-03-01T05:13:34;102919.66;;;1.91;100.00
18436;BME280;9346;52.006;4.720;2023-03-01T05:16:02;102921.56;;;1.90;100.00
18436;BME280;9346;52.006;4.720;2023-03-01T05:18:33;102920.88;;;1.88;100.00
18436;BME280;9346;52.006;4.720;2023-03-01T05:21:03;102922.72;;;1.88;100.00
18436;BME280;9346;52.006;4.720;2023-03-01T05:23:31;102907.59;;;1.85;100.00
18436;BME280;9346;52.006;4.720;2023-03-01T05:25:58;102903.38;;;1.83;100.00
18436;BME280;9346;52.006;4.720;2023-03-01T05:28:26;102902.66;;;1.81;100.00
18436;BME280;9346;52.006;4.720;2023-03-01T05:30:53;102900.13;;;1.79;100.00
18436;BME280;9346;52.006;4.720;2023-03-01T05:33:20;102895.53;;;1.80;100.00
18436;BME280;9346;52.006;4.720;2023-03-01T05:35:50;102886.53;;;1.79;100.00
18436;BME280;9346;52.006;4.720;2023-03-01T05:38:19;102884.69;;;1.80;100.00
18436;BME280;9346;52.006;4.720;2023-03-01T05:40:48;102870.22;;;1.79;100.00
18436;BME280;9346;52.006;4.720;2023-03-01T05:43:16;102873.13;;;1.78;100.00
18436;BME280;9346;52.006;4.720;2023-03-01T05:45:43;102868.72;;;1.77;100.00
18436;BME280;9346;52.006;4.720;2023-03-01T05:48:11;102865.28;;;1.75;100.00
18436;BME280;9346;52.006;4.720;2023-03-01T05:50:40;102871.75;;;1.74;100.00
18436;BME280;9346;52.006;4.720;2023-03-01T05:53:12;102877.19;;;1.74;100.00
18436;BME280;9346;52.006;4.720;2023-03-01T05:55:40;102875.84;;;1.70;100.00
18436;BME280;9346;52.006;4.720;2023-03-01T05:58:13;102874.09;;;1.69;100.00
18436;BME280;9346;52.006;4.720;2023-03-01T06:00:41;102864.09;;;1.69;100.00
18436;BME280;9346;52.006;4.720;2023-03-01T06:03:10;102870.41;;;1.70;100.00
18436;BME280;9346;52.006;4.720;2023-03-01T06:05:37;102874.97;;;1.69;100.00
18436;BME280;9346;52.006;4.720;2023-03-01T06:08:05;102870.56;;;1.68;100.00
18436;BME280;9346;52.006;4.720;2023-03-01T06:10:33;102877.84;;;1.68;100.00
18436;BME280;9346;52.006;4.720;2023-03-01T06:13:00;102874.09;;;1.69;100.00
18436;BME280;9346;52.006;4.720;2023-03-01T06:15:27;102871.41;;;1.69;100.00
18436;BME280;9346;52.006;4.720;2023-03-01T06:17:55;102870.72;;;1.67;100.00
18436;BME280;9346;52.006;4.720;2023-03-01T06:20:24;102879.06;;;1.65;100.00
18436;BME280;9346;52.006;4.720;2023-03-01T06:22:52;102870.03;;;1.65;100.00
18436;BME280;9346;52.006;4.720;2023-03-01T06:25:22;102882.75;;;1.64;100.00
18436;BME280;9346;52.006;4.720;2023-03-01T06:27:51;102882.59;;;1.66;100.00
18436;BME280;9346;52.006;4.720;2023-03-01T06:30:20;102886.00;;;1.60;100.00
18436;BME280;9346;52.006;4.720;2023-03-01T06:32:49;102890.38;;;1.53;100.00
18436;BME280;9346;52.006;4.720;2023-03-01T06:35:17;102890.88;;;1.48;100.00
18436;BME280;9346;52.006;4.720;2023-03-01T06:37:47;102893.75;;;1.47;100.00
18436;BME280;9346;52.006;4.720;2023-03-01T06:40:14;102893.75;;;1.47;100.00
18436;BME280;9346;52.006;4.720;2023-03-01T06:42:43;102890.88;;;1.48;100.00
18436;BME280;9346;52.006;4.720;2023-03-01T06:45:16;102890.03;;;1.48;100.00
18436;BME280;9346;52.006;4.720;2023-03-01T06:47:43;102889.00;;;1.49;100.00
18436;BME280;9346;52.006;4.720;2023-03-01T06:50:11;102891.56;;;1.50;100.00
18436;BME280;9346;52.006;4.720;2023-03-01T06:52:38;102894.44;;;1.49;100.00
18436;BME280;9346;52.006;4.720;2023-03-01T06:55:06;102890.03;;;1.48;100.00
18436;BME280;9346;52.006;4.720;2023-03-01T06:57:33;102884.44;;;1.49;100.00
18436;BME280;9346;52.006;4.720;2023-03-01T07:00:00;102885.28;;;1.50;100.00
18436;BME280;9346;52.006;4.720;2023-03-01T07:02:29;102888.00;;;1.50;100.00
18436;BME280;9346;52.006;4.720;2023-03-01T07:04:56;102885.44;;;1.48;100.00
18436;BME280;9346;52.006;4.720;2023-03-01T07:07:23;102892.59;;;1.49;100.00
18436;BME280;9346;52.006;4.720;2023-03-01T07:09:49;102886.13;;;1.50;100.00
18436;BME280;9346;52.006;4.720;2023-03-01T07:12:16;102884.44;;;1.49;100.00
18436;BME280;9346;52.006;4.720;2023-03-01T07:14:43;102886.84;;;1.52;100.00
18436;BME280;9346;52.006;4.720;2023-03-01T07:17:11;102892.09;;;1.54;100.00
18436;BME280;9346;52.006;4.720;2023-03-01T07:19:39;102893.94;;;1.53;100.00
18436;BME280;9346;52.006;4.720;2023-03-01T07:22:06;102893.41;;;1.50;100.00
18436;BME280;9346;52.006;4.720;2023-03-01T07:24:34;102893.41;;;1.50;100.00
18436;BME280;9346;52.006;4.720;2023-03-01T07:27:02;102890.88;;;1.48;100.00
18436;BME280;9346;52.006;4.720;2023-03-01T07:29:29;102885.09;;;1.51;100.00
18436;BME280;9346;52.006;4.720;2023-03-01T07:31:56;102891.25;;;1.53;100.00
18436;BME280;9346;52.006;4.720;2023-03-01T07:34:23;102895.66;;;1.54;100.00
18436;BME280;9346;52.006;4.720;2023-03-01T07:36:52;102898.19;;;1.56;100.00
18436;BME280;9346;52.006;4.720;2023-03-01T07:39:19;102889.22;;;1.55;100.00
18436;BME280;9346;52.006;4.720;2023-03-01T07:41:48;102895.31;;;1.57;100.00
18436;BME280;9346;52.006;4.720;2023-03-01T07:44:15;102895.84;;;1.61;100.00
18436;BME280;9346;52.006;4.720;2023-03-01T07:46:42;102902.81;;;1.63;100.00
18436;BME280;9346;52.006;4.720;2023-03-01T07:49:09;102899.75;;;1.66;100.00
18436;BME280;9346;52.006;4.720;2023-03-01T07:51:36;102897.72;;;1.68;100.00
18436;BME280;9346;52.006;4.720;2023-03-01T07:54:05;102897.41;;;1.71;100.00
18436;BME280;9346;52.006;4.720;2023-03-01T07:56:32;102895.34;;;1.73;100.00
18436;BME280;9346;52.006;4.720;2023-03-01T07:58:59;102898.75;;;1.75;100.00
18436;BME280;9346;52.006;4.720;2023-03-01T08:01:27;102899.94;;;1.81;100.00
18436;BME280;9346;52.006;4.720;2023-03-01T08:03:54;102900.47;;;1.84;100.00
18436;BME280;9346;52.006;4.720;2023-03-01T08:06:21;102893.69;;;1.88;100.00
18436;BME280;9346;52.006;4.720;2023-03-01T08:08:47;102892.50;;;1.91;100.00
18436;BME280;9346;52.006;4.720;2023-03-01T08:11:16;102891.13;;;1.95;100.00
18436;BME280;9346;52.006;4.720;2023-03-01T08:13:43;102894.38;;;1.98;100.00
18436;BME280;9346;52.006;4.720;2023-03-01T08:16:12;102896.75;;;2.01;100.00
18436;BME280;9346;52.006;4.720;2023-03-01T08:18:39;102892.50;;;2.07;100.00
18436;BME280;9346;52.006;4.720;2023-03-01T08:21:08;102891.81;;;2.13;100.00
18436;BME280;9346;52.006;4.720;2023-03-01T08:23:35;102893.53;;;2.22;100.00
18436;BME280;9346;52.006;4.720;2023-03-01T08:26:04;102887.06;;;2.31;100.00
18436;BME280;9346;52.006;4.720;2023-03-01T08:28:33;102869.69;;;2.40;100.00
18436;BME280;9346;52.006;4.720;2023-03-01T08:31:00;102886.03;;;2.48;100.00
18436;BME280;9346;52.006;4.720;2023-03-01T08:33:28;102875.28;;;2.55;100.00
18436;BME280;9346;52.006;4.720;2023-03-01T08:36:03;102868.34;;;2.60;100.00
18436;BME280;9346;52.006;4.720;2023-03-01T08:38:32;102868.81;;;2.72;100.00
18436;BME280;9346;52.006;4.720;2023-03-01T08:41:00;102866.22;;;2.78;100.00
18436;BME280;9346;52.006;4.720;2023-03-01T08:43:27;102860.09;;;2.84;100.00
18436;BME280;9346;52.006;4.720;2023-03-01T08:45:55;102870.97;;;2.92;100.00
18436;BME280;9346;52.006;4.720;2023-03-01T08:48:23;102867.34;;;3.00;100.00
18436;BME280;9346;52.006;4.720;2023-03-01T08:50:50;102868.53;;;3.05;100.00
18436;BME280;9346;52.006;4.720;2023-03-01T08:53:17;102856.59;;;3.06;100.00
18436;BME280;9346;52.006;4.720;2023-03-01T08:55:44;102862.34;;;3.11;100.00
18436;BME280;9346;52.006;4.720;2023-03-01T08:58:11;102859.28;;;3.14;100.00
18436;BME280;9346;52.006;4.720;2023-03-01T09:00:38;102856.19;;;3.17;100.00
18436;BME280;9346;52.006;4.720;2023-03-01T09:03:08;102851.72;;;3.24;100.00
18436;BME280;9346;52.006;4.720;2023-03-01T09:05:35;102851.03;;;3.30;100.00
18436;BME280;9346;52.006;4.720;2023-03-01T09:08:02;102849.97;;;3.39;100.00
18436;BME280;9346;52.006;4.720;2023-03-01T09:10:29;102842.41;;;3.49;100.00
18436;BME280;9346;52.006;4.720;2023-03-01T09:12:56;102839.16;;;3.54;100.00
18436;BME280;9346;52.006;4.720;2023-03-01T09:15:23;102840.97;;;3.61;100.00
18436;BME280;9346;52.006;4.720;2023-03-01T09:17:50;102835.34;;;3.63;100.00
18436;BME280;9346;52.006;4.720;2023-03-01T09:20:19;102837.63;;;3.74;100.00
18436;BME280;9346;52.006;4.720;2023-03-01T09:22:46;102835.03;;;3.80;100.00
18436;BME280;9346;52.006;4.720;2023-03-01T09:25:13;102827.72;;;3.81;100.00
18436;BME280;9346;52.006;4.720;2023-03-01T09:27:40;102828.56;;;3.81;100.00
18436;BME280;9346;52.006;4.720;2023-03-01T09:30:08;102826.31;;;3.85;100.00
18436;BME280;9346;52.006;4.720;2023-03-01T09:32:35;102824.75;;;3.90;100.00
18436;BME280;9346;52.006;4.720;2023-03-01T09:35:02;102820.25;;;3.97;100.00
18436;BME280;9346;52.006;4.720;2023-03-01T09:37:44;102824.28;;;4.01;100.00
18436;BME280;9346;52.006;4.720;2023-03-01T09:40:15;102817.50;;;3.97;100.00
18436;BME280;9346;52.006;4.720;2023-03-01T09:42:55;102822.41;;;4.02;100.00
18436;BME280;9346;52.006;4.720;2023-03-01T09:45:33;102823.66;;;3.99;100.00
18436;BME280;9346;52.006;4.720;2023-03-01T09:48:01;102826.38;;;3.99;100.00
18436;BME280;9346;52.006;4.720;2023-03-01T09:50:33;102824.84;;;3.97;100.00
18436;BME280;9346;52.006;4.720;2023-03-01T09:53:05;102824.84;;;3.97;100.00
18436;BME280;9346;52.006;4.720;2023-03-01T09:55:37;102828.72;;;4.02;100.00
18436;BME280;9346;52.006;4.720;2023-03-01T09:58:27;102819.16;;;4.06;100.00
18436;BME280;9346;52.006;4.720;2023-03-01T10:00:59;102822.16;;;4.11;100.00
18436;BME280;9346;52.006;4.720;2023-03-01T10:03:35;102817.38;;;4.13;100.00
18436;BME280;9346;52.006;4.720;2023-03-01T10:06:10;102816.69;;;4.11;100.00
18436;BME280;9346;52.006;4.720;2023-03-01T10:08:42;102815.31;;;4.15;100.00
18436;BME280;9346;52.006;4.720;2023-03-01T10:11:21;102807.97;;;4.16;100.00
18436;BME280;9346;52.006;4.720;2023-03-01T10:13:52;102800.28;;;4.19;100.00
18436;BME280;9346;52.006;4.720;2023-03-01T10:16:27;102804.63;;;4.28;100.00
18436;BME280;9346;52.006;4.720;2023-03-01T10:18:59;102796.63;;;4.41;100.00
18436;BME280;9346;52.006;4.720;2023-03-01T10:21:27;102800.78;;;4.52;100.00
18436;BME280;9346;52.006;4.720;2023-03-01T10:24:08;102797.09;;;4.59;100.00
18436;BME280;9346;52.006;4.720;2023-03-01T10:26:44;102786.84;;;4.61;100.00
18436;BME280;9346;52.006;4.720;2023-03-01T10:29:14;102789.88;;;4.67;100.00
18436;BME280;9346;52.006;4.720;2023-03-01T10:31:43;102788.47;;;4.71;100.00
18436;BME280;9346;52.006;4.720;2023-03-01T10:34:13;102778.94;;;4.81;100.00
18436;BME280;9346;52.006;4.720;2023-03-01T10:36:42;102775.81;;;4.84;100.00
18436;BME280;9346;52.006;4.720;2023-03-01T10:39:16;102787.78;;;4.83;100.00
18436;BME280;9346;52.006;4.720;2023-03-01T10:41:56;102787.13;;;4.81;100.00
18436;BME280;9346;52.006;4.720;2023-03-01T10:44:40;102782.06;;;4.78;100.00
18436;BME280;9346;52.006;4.720;2023-03-01T10:47:15;102784.22;;;4.83;100.00
18436;BME280;9346;52.006;4.720;2023-03-01T10:50:09;102774.66;;;4.93;100.00
18436;BME280;9346;52.006;4.720;2023-03-01T10:52:57;102769.56;;;5.05;100.00
18436;BME280;9346;52.006;4.720;2023-03-01T10:55:31;102769.13;;;5.01;100.00
18436;BME280;9346;52.006;4.720;2023-03-01T10:58:16;102765.16;;;5.04;100.00
18436;BME280;9346;52.006;4.720;2023-03-01T11:00:52;102756.06;;;5.18;100.00
18436;BME280;9346;52.006;4.720;2023-03-01T11:03:21;102746.31;;;5.30;100.00
18436;BME280;9346;52.006;4.720;2023-03-01T11:05:58;102744.44;;;5.30;100.00
18436;BME280;9346;52.006;4.720;2023-03-01T11:08:40;102737.75;;;5.33;100.00
18436;BME280;9346;52.006;4.720;2023-03-01T11:11:18;102738.25;;;5.43;100.00
18436;BME280;9346;52.006;4.720;2023-03-01T11:13:50;102729.00;;;5.44;100.00
18436;BME280;9346;52.006;4.720;2023-03-01T11:16:30;102721.03;;;5.42;100.00
18436;BME280;9346;52.006;4.720;2023-03-01T11:19:01;102721.84;;;5.43;100.00
18436;BME280;9346;52.006;4.720;2023-03-01T11:21:30;102721.22;;;5.41;100.00
18436;BME280;9346;52.006;4.720;2023-03-01T11:24:03;102719.13;;;5.43;100.00
18436;BME280;9346;52.006;4.720;2023-03-01T11:26:36;102713.94;;;5.48;100.00
18436;BME280;9346;52.006;4.720;2023-03-01T11:29:12;102710.16;;;5.49;100.00
18436;BME280;9346;52.006;4.720;2023-03-01T11:31:45;102713.94;;;5.48;100.00
18436;BME280;9346;52.006;4.720;2023-03-01T11:34:16;102710.84;;;5.57;100.00
18436;BME280;9346;52.006;4.720;2023-03-01T11:36:51;102718.09;;;5.65;100.00
18436;BME280;9346;52.006;4.720;2023-03-01T11:39:27;102721.00;;;5.63;100.00
18436;BME280;9346;52.006;4.720;2023-03-01T11:42:06;102714.09;;;5.67;100.00
18436;BME280;9346;52.006;4.720;2023-03-01T11:44:40;102709.31;;;5.76;100.00
18436;BME280;9346;52.006;4.720;2023-03-01T11:47:24;102712.31;;;5.81;100.00
18436;BME280;9346;52.006;4.720;2023-03-01T11:50:11;102702.84;;;5.77;100.00
18436;BME280;9346;52.006;4.720;2023-03-01T11:52:51;102704.72;;;5.76;100.00
18436;BME280;9346;52.006;4.720;2023-03-01T11:55:36;102699.72;;;5.80;100.00
18436;BME280;9346;52.006;4.720;2023-03-01T11:58:24;102687.72;;;5.81;100.00
18436;BME280;9346;52.006;4.720;2023-03-01T12:01:03;102686.03;;;5.80;100.00
18436;BME280;9346;52.006;4.720;2023-03-01T12:03:52;102687.91;;;5.79;100.00
18436;BME280;9346;52.006;4.720;2023-03-01T12:06:31;102690.53;;;5.87;100.00
18436;BME280;9346;52.006;4.720;2023-03-01T12:09:13;102685.13;;;5.94;100.00
18436;BME280;9346;52.006;4.720;2023-03-01T12:11:57;102679.69;;;6.00;100.00
18436;BME280;9346;52.006;4.720;2023-03-01T12:14:47;102675.75;;;6.09;100.00
18436;BME280;9346;52.006;4.720;2023-03-01T12:17:36;102674.06;;;6.08;100.00
18436;BME280;9346;52.006;4.720;2023-03-01T12:20:23;102660.00;;;6.18;100.00
18436;BME280;9346;52.006;4.720;2023-03-01T12:23:04;102661.31;;;6.22;100.00
18436;BME280;9346;52.006;4.720;2023-03-01T12:25:36;102649.06;;;6.18;100.00
18436;BME280;9346;52.006;4.720;2023-03-01T12:28:19;102648.44;;;6.16;100.00
18436;BME280;9346;52.006;4.720;2023-03-01T12:31:12;102659.59;;;6.21;100.00
18436;BME280;9346;52.006;4.720;2023-03-01T12:33:51;102648.03;;;6.19;100.00
18436;BME280;9346;52.006;4.720;2023-03-01T12:36:39;102647.84;;;6.20;100.00
18436;BME280;9346;52.006;4.720;2023-03-01T12:39:20;102647.63;;;6.22;100.00
18436;BME280;9346;52.006;4.720;2023-03-01T12:41:57;102642.38;;;6.27;100.00
18436;BME280;9346;52.006;4.720;2023-03-01T12:47:39;102635.69;;;6.36;100.00
18436;BME280;9346;52.006;4.720;2023-03-01T12:50:14;102638.44;;;6.36;100.00
18436;BME280;9346;52.006;4.720;2023-03-01T12:52:47;102643.88;;;6.29;100.00
18436;BME280;9346;52.006;4.720;2023-03-01T12:55:26;102628.28;;;6.30;100.00
18436;BME280;9346;52.006;4.720;2023-03-01T12:58:02;102621.56;;;6.32;100.00
18436;BME280;9346;52.006;4.720;2023-03-01T13:00:35;102634.47;;;6.45;100.00
18436;BME280;9346;52.006;4.720;2023-03-01T13:03:13;102638.28;;;6.44;100.00
18436;BME280;9346;52.006;4.720;2023-03-01T13:05:55;102633.41;;;6.46;100.00
18436;BME280;9346;52.006;4.720;2023-03-01T13:08:27;102638.03;;;6.45;100.00
18436;BME280;9346;52.006;4.720;2023-03-01T13:11:00;102635.53;;;6.44;100.00
18436;BME280;9346;52.006;4.720;2023-03-01T13:13:28;102635.13;;;6.53;100.00
18436;BME280;9346;52.006;4.720;2023-03-01T13:15:55;102627.59;;;6.62;100.00
18436;BME280;9346;52.006;4.720;2023-03-01T13:18:32;102618.31;;;6.63;100.00
18436;BME280;9346;52.006;4.720;2023-03-01T13:21:02;102612.41;;;6.59;100.00